Time;durP1;ratioP1;P1;durP2;ratioP2;P2;SDS_P1;SDS_P2;PMS_P1;PMS_P2;Temp;Humidity;BMP_temperature;BMP_pressure;BME280_temperature;BME280_humidity;BME280_pressure;Samples;Min_cycle;Max_cycle;Signal;HPM_P1;HPM_P2
2023/03/19 00:02:16;;;;;;;27.42;14.95;;;;;;;;;;4863430;29;20037;-94
2023/03/19 00:04:42;;;;;;;28.88;15.88;;;;;;;;;;4862837;29;20034;-94
2023/03/19 00:07:08;;;;;;;25.73;14.82;;;;;;;;;;4863273;29;20027;-95
2023/03/19 00:09:35;;;;;;;26.77;14.65;;;;;;;;;;4863710;29;20051;-93
2023/03/19 00:12:04;;;;;;;25.80;15.52;;;;;;;;;;4861099;29;20168;-94
2023/03/19 00:14:33;;;;;;;27.52;15.68;;;;;;;;;;4863725;29;20112;-94
2023/03/19 00:17:06;;;;;;;27.70;15.30;;;;;;;;;;4866402;29;20104;-94
2023/03/19 00:19:35;;;;;;;26.83;15.00;;;;;;;;;;4864757;29;20093;-92
2023/03/19 00:22:01;;;;;;;24.63;14.50;;;;;;;;;;4862778;29;20045;-93
2023/03/19 00:24:31;;;;;;;24.88;15.15;;;;;;;;;;4863055;29;20115;-94
2023/03/19 00:27:03;;;;;;;26.30;14.82;;;;;;;;;;4862883;29;20029;-93
2023/03/19 00:29:29;;;;;;;27.77;15.50;;;;;;;;;;4862767;29;20483;-94
2023/03/19 00:32:02;;;;;;;26.45;14.23;;;;;;;;;;4857531;29;20033;-92
2023/03/19 00:34:31;;;;;;;26.30;14.98;;;;;;;;;;4866621;29;20044;-92
2023/03/19 00:36:57;;;;;;;29.52;16.15;;;;;;;;;;4872860;29;20029;-94
2023/03/19 00:39:26;;;;;;;27.48;16.10;;;;;;;;;;4862673;29;20033;-94
2023/03/19 00:41:52;;;;;;;26.23;15.25;;;;;;;;;;4862893;29;20124;-93
2023/03/19 00:44:21;;;;;;;34.05;16.55;;;;;;;;;;4863170;29;20033;-95
2023/03/19 00:46:47;;;;;;;25.05;15.38;;;;;;;;;;4864299;29;20056;-94
2023/03/19 00:49:13;;;;;;;28.08;15.02;;;;;;;;;;4863299;29;20479;-93
2023/03/19 00:51:42;;;;;;;28.33;15.10;;;;;;;;;;4862431;29;20039;-93
2023/03/19 00:54:09;;;;;;;25.80;15.32;;;;;;;;;;4862702;29;20554;-93
2023/03/19 00:56:35;;;;;;;26.13;14.48;;;;;;;;;;4862542;29;20033;-94
2023/03/19 00:59:01;;;;;;;24.48;15.00;;;;;;;;;;4862528;29;20475;-94
2023/03/19 01:01:28;;;;;;;27.20;15.20;;;;;;;;;;4862869;29;20066;-92
2023/03/19 01:03:54;;;;;;;23.17;14.07;;;;;;;;;;4862644;29;20067;-94
2023/03/19 01:06:20;;;;;;;28.23;15.07;;;;;;;;;;4861143;29;20041;-94
2023/03/19 01:08:49;;;;;;;27.13;15.63;;;;;;;;;;4856645;29;20037;-95
2023/03/19 01:11:16;;;;;;;25.25;15.15;;;;;;;;;;4862335;29;20036;-94
2023/03/19 01:20:01;;;;;;;25.50;14.63;;;;;;;;;;4915215;23;20019;-93
2023/03/19 01:22:30;;;;;;;25.63;15.13;;;;;;;;;;4882949;29;20028;-95
2023/03/19 01:24:56;;;;;;;25.23;15.13;;;;;;;;;;4883165;29;20039;-95
2023/03/19 01:27:23;;;;;;;27.02;15.35;;;;;;;;;;4880927;29;20036;-94
2023/03/19 01:30:01;;;;;;;25.02;14.48;;;;;;;;;;4880656;29;20124;-94
2023/03/19 01:32:33;;;;;;;26.33;15.00;;;;;;;;;;4880560;29;20044;-94
2023/03/19 01:35:05;;;;;;;26.63;15.25;;;;;;;;;;4880716;29;20033;-93
2023/03/19 01:37:31;;;;;;;26.77;14.63;;;;;;;;;;4880356;29;20021;-94
2023/03/19 01:39:58;;;;;;;27.30;15.18;;;;;;;;;;4880508;29;20032;-93
2023/03/19 01:42:27;;;;;;;27.30;15.50;;;;;;;;;;4880432;29;20470;-94
2023/03/19 01:44:53;;;;;;;34.28;16.60;;;;;;;;;;4880272;29;20032;-92
2023/03/19 01:47:30;;;;;;;32.10;16.15;;;;;;;;;;4880521;29;20457;-92
2023/03/19 01:50:02;;;;;;;23.40;14.07;;;;;;;;;;4880182;29;20037;-94
2023/03/19 01:52:33;;;;;;;28.00;16.17;;;;;;;;;;4880499;29;20483;-93
2023/03/19 01:55:00;;;;;;;23.90;14.02;;;;;;;;;;4880355;29;20060;-93
2023/03/19 01:57:28;;;;;;;27.95;15.32;;;;;;;;;;4880322;29;20481;-95
2023/03/19 01:59:59;;;;;;;26.95;15.30;;;;;;;;;;4880216;29;20028;-94
2023/03/19 02:02:25;;;;;;;26.65;13.90;;;;;;;;;;4880408;29;20037;-94
2023/03/19 02:05:00;;;;;;;25.48;15.45;;;;;;;;;;4880670;29;20032;-93
2023/03/19 02:07:32;;;;;;;26.90;15.45;;;;;;;;;;4880208;29;20041;-95
2023/03/19 02:10:06;;;;;;;24.15;15.20;;;;;;;;;;4880275;29;20040;-95
2023/03/19 02:12:32;;;;;;;26.65;15.02;;;;;;;;;;4880384;29;20032;-94
2023/03/19 02:14:59;;;;;;;25.63;15.70;;;;;;;;;;4880081;29;20044;-94
2023/03/19 02:17:26;;;;;;;29.02;16.60;;;;;;;;;;4880538;29;20439;-93
2023/03/19 02:19:59;;;;;;;28.75;17.13;;;;;;;;;;4884640;29;20051;-92
2023/03/19 02:22:25;;;;;;;;;;;;;;;;;;4878993;29;20040;-93
2023/03/19 02:25:01;;;;;;;30.30;16.45;;;;;;;;;;4865501;29;20289;-93
2023/03/19 02:27:40;;;;;;;33.83;18.25;;;;;;;;;;4864934;29;20040;-95
2023/03/19 02:30:18;;;;;;;31.45;17.13;;;;;;;;;;4865359;29;20490;-94
2023/03/19 02:32:47;;;;;;;33.40;18.25;;;;;;;;;;4865272;29;20029;-92
2023/03/19 02:35:13;;;;;;;32.28;18.30;;;;;;;;;;4867104;29;20033;-95
2023/03/19 02:37:40;;;;;;;31.70;17.83;;;;;;;;;;4865163;29;20029;-94
2023/03/19 02:40:13;;;;;;;29.63;17.25;;;;;;;;;;4865432;29;20037;-93
2023/03/19 02:42:39;;;;;;;35.83;18.33;;;;;;;;;;4865530;29;20221;-94
2023/03/19 02:45:06;;;;;;;31.33;17.63;;;;;;;;;;4865110;29;20037;-94
2023/03/19 02:47:32;;;;;;;34.97;18.88;;;;;;;;;;4865090;29;20119;-93
2023/03/19 02:50:05;;;;;;;34.05;19.02;;;;;;;;;;4864608;29;20044;-93
2023/03/19 02:52:31;;;;;;;36.60;19.23;;;;;;;;;;4865161;29;20037;-93
2023/03/19 02:54:57;;;;;;;31.40;17.75;;;;;;;;;;4864833;29;20278;-93
2023/03/19 02:57:23;;;;;;;30.48;16.33;;;;;;;;;;4864264;29;20047;-93
2023/03/19 02:59:49;;;;;;;31.10;17.15;;;;;;;;;;4864763;29;20037;-93
2023/03/19 03:02:18;;;;;;;32.42;17.45;;;;;;;;;;4865186;29;20475;-94
2023/03/19 03:04:45;;;;;;;33.25;17.92;;;;;;;;;;4864595;29;20029;-92
2023/03/19 03:07:11;;;;;;;30.73;17.63;;;;;;;;;;4864559;29;20025;-94
2023/03/19 03:09:38;;;;;;;30.63;16.58;;;;;;;;;;4863758;29;20057;-93
2023/03/19 03:12:07;;;;;;;34.40;17.27;;;;;;;;;;4864639;29;20124;-94
2023/03/19 03:14:34;;;;;;;32.22;17.25;;;;;;;;;;4864361;29;20096;-93
2023/03/19 03:17:00;;;;;;;34.20;17.55;;;;;;;;;;4864624;29;20029;-93
2023/03/19 03:19:26;;;;;;;31.13;17.90;;;;;;;;;;4864456;29;20107;-93
2023/03/19 03:21:52;;;;;;;30.38;17.85;;;;;;;;;;4864075;29;20061;-94
2023/03/19 03:24:21;;;;;;;32.67;18.23;;;;;;;;;;4865132;29;20093;-95
2023/03/19 03:26:48;;;;;;;36.10;18.23;;;;;;;;;;4864181;29;20542;-93
2023/03/19 03:29:15;;;;;;;40.10;18.95;;;;;;;;;;4864236;29;20047;-92
2023/03/19 03:31:41;;;;;;;33.70;17.95;;;;;;;;;;4864298;29;20040;-93
2023/03/19 03:34:10;;;;;;;31.05;17.70;;;;;;;;;;4864247;29;20033;-93
2023/03/19 03:36:39;;;;;;;32.25;17.95;;;;;;;;;;4865967;29;20037;-93
2023/03/19 03:39:05;;;;;;;31.02;17.65;;;;;;;;;;4862863;29;20029;-94
2023/03/19 03:41:32;;;;;;;34.58;18.33;;;;;;;;;;4863944;29;20503;-92
2023/03/19 03:43:58;;;;;;;33.38;18.58;;;;;;;;;;4863670;29;20096;-93
2023/03/19 03:46:24;;;;;;;37.25;19.48;;;;;;;;;;4863670;29;20486;-94
2023/03/19 03:48:50;;;;;;;34.80;19.15;;;;;;;;;;4848554;29;20049;-93
2023/03/19 03:59:59;;;;;;;37.53;19.45;;;;;;;;;;5110291;23;20061;-95
2023/03/19 04:02:29;;;;;;;35.95;18.98;;;;;;;;;;4883746;29;20052;-95
2023/03/19 04:04:55;;;;;;;33.65;18.50;;;;;;;;;;4883489;29;20040;-95
2023/03/19 04:07:22;;;;;;;35.70;18.67;;;;;;;;;;4894029;29;20029;-93
2023/03/19 04:09:49;;;;;;;34.58;18.80;;;;;;;;;;4884736;29;20040;-95
2023/03/19 04:12:16;;;;;;;34.95;19.15;;;;;;;;;;4882690;29;20100;-95
2023/03/19 04:14:42;;;;;;;34.47;18.48;;;;;;;;;;4882097;29;20561;-94
2023/03/19 04:17:08;;;;;;;32.40;17.85;;;;;;;;;;4882260;29;20416;-96
2023/03/19 04:19:35;;;;;;;31.95;16.83;;;;;;;;;;4882773;29;20044;-96
2023/03/19 04:22:02;;;;;;;33.83;18.58;;;;;;;;;;4882956;29;20028;-95
2023/03/19 04:24:28;;;;;;;32.03;18.02;;;;;;;;;;4883006;29;20092;-95
2023/03/19 04:26:54;;;;;;;37.92;18.58;;;;;;;;;;4882270;29;20393;-96
2023/03/19 04:29:21;;;;;;;32.13;16.65;;;;;;;;;;4882451;29;20037;-95
2023/03/19 04:31:51;;;;;;;34.35;17.92;;;;;;;;;;4882710;29;20020;-95
2023/03/19 04:34:18;;;;;;;35.83;19.13;;;;;;;;;;4882492;29;20028;-96
2023/03/19 04:36:44;;;;;;;36.40;19.50;;;;;;;;;;4882085;29;20028;-96
2023/03/19 04:39:10;;;;;;;34.90;18.73;;;;;;;;;;4882367;29;20025;-96
2023/03/19 04:41:37;;;;;;;39.50;20.02;;;;;;;;;;4881966;29;20033;-94
2023/03/19 04:44:03;;;;;;;34.97;18.80;;;;;;;;;;4881534;29;20036;-96
2023/03/19 04:46:30;;;;;;;31.15;17.02;;;;;;;;;;4881723;29;20037;-95
2023/03/19 04:48:56;;;;;;;36.55;18.63;;;;;;;;;;4881362;29;20470;-94
2023/03/19 04:51:22;;;;;;;39.15;19.40;;;;;;;;;;4881950;29;20486;-94
2023/03/19 04:53:48;;;;;;;34.50;18.65;;;;;;;;;;4881794;29;20394;-94
2023/03/19 04:56:17;;;;;;;38.03;19.90;;;;;;;;;;4881348;29;20195;-96
2023/03/19 04:58:46;;;;;;;35.38;18.67;;;;;;;;;;4880935;29;20506;-95
2023/03/19 05:01:13;;;;;;;35.92;19.05;;;;;;;;;;4881570;29;20084;-94
2023/03/19 05:03:39;;;;;;;36.92;19.73;;;;;;;;;;4881496;29;20028;-93
2023/03/19 05:06:05;;;;;;;40.70;18.60;;;;;;;;;;4890317;29;20033;-94
2023/03/19 05:08:31;;;;;;;38.00;19.55;;;;;;;;;;4888180;29;20032;-95
2023/03/19 05:10:57;;;;;;;33.15;18.80;;;;;;;;;;4882788;29;20043;-95
2023/03/19 05:13:26;;;;;;;33.13;19.23;;;;;;;;;;4882134;29;20427;-95
2023/03/19 05:15:54;;;;;;;29.88;17.52;;;;;;;;;;4881836;29;20040;-96
2023/03/19 05:18:20;;;;;;;36.22;18.10;;;;;;;;;;4882476;29;20021;-95
2023/03/19 05:20:47;;;;;;;34.30;18.30;;;;;;;;;;4885711;29;20029;-94
2023/03/19 05:23:16;;;;;;;32.83;18.90;;;;;;;;;;4884494;29;20032;-95
2023/03/19 05:25:43;;;;;;;31.27;18.40;;;;;;;;;;4883836;29;20032;-95
2023/03/19 05:28:12;;;;;;;31.02;17.02;;;;;;;;;;5006337;23;20015;-93
2023/03/19 05:30:38;;;;;;;34.10;18.40;;;;;;;;;;4862198;29;20444;-92
2023/03/19 05:33:07;;;;;;;28.98;16.50;;;;;;;;;;4862154;29;20056;-92
2023/03/19 05:35:34;;;;;;;29.38;16.23;;;;;;;;;;4860541;29;20144;-94
2023/03/19 05:38:03;;;;;;;29.63;17.02;;;;;;;;;;4862059;29;20041;-95
2023/03/19 05:40:34;;;;;;;27.55;15.80;;;;;;;;;;4863569;29;20037;-93
2023/03/19 05:43:03;;;;;;;26.35;14.90;;;;;;;;;;4864160;29;20036;-94
2023/03/19 05:45:29;;;;;;;24.50;14.60;;;;;;;;;;4862571;29;20033;-92
2023/03/19 05:48:02;;;;;;;23.25;14.05;;;;;;;;;;4861739;29;20036;-93
2023/03/19 05:50:34;;;;;;;25.08;14.48;;;;;;;;;;4878475;29;20096;-91
2023/03/19 05:53:01;;;;;;;23.40;14.20;;;;;;;;;;4864145;29;20029;-91
2023/03/19 05:55:33;;;;;;;21.02;14.60;;;;;;;;;;4863148;29;20055;-94
2023/03/19 05:58:00;;;;;;;20.05;12.85;;;;;;;;;;4862480;29;20056;-91
2023/03/19 06:00:26;;;;;;;20.73;13.27;;;;;;;;;;4861965;29;20041;-91
2023/03/19 06:02:57;;;;;;;21.45;13.48;;;;;;;;;;4863146;29;20033;-92
2023/03/19 06:08:31;;;;;;;20.73;12.60;;;;;;;;;;4841839;29;20040;-93
2023/03/19 06:10:57;;;;;;;20.60;14.15;;;;;;;;;;4826552;29;20433;-92
2023/03/19 06:13:23;;;;;;;18.40;13.82;;;;;;;;;;4826310;29;20046;-92
2023/03/19 06:15:49;;;;;;;18.67;14.45;;;;;;;;;;4826070;29;20064;-94
2023/03/19 06:18:16;;;;;;;21.95;15.00;;;;;;;;;;4826258;29;20065;-94
2023/03/19 06:20:45;;;;;;;14.20;12.48;;;;;;;;;;4826613;29;20030;-93
2023/03/19 06:23:11;;;;;;;17.52;13.60;;;;;;;;;;4827001;29;20429;-94
2023/03/19 06:25:37;;;;;;;17.75;12.93;;;;;;;;;;4825948;29;20033;-92
2023/03/19 06:37:15;;;;;;;14.57;11.80;;;;;;;;;;4840658;29;20096;-93
2023/03/19 06:39:42;;;;;;;14.63;11.50;;;;;;;;;;4853753;29;20056;-92
2023/03/19 06:42:08;;;;;;;13.77;11.68;;;;;;;;;;4863181;29;20037;-92
2023/03/19 06:44:37;;;;;;;13.43;11.10;;;;;;;;;;4862820;29;20464;-93
2023/03/19 06:47:09;;;;;;;13.25;10.45;;;;;;;;;;4863052;29;20184;-93
2023/03/19 06:49:36;;;;;;;14.25;11.73;;;;;;;;;;4863220;29;20482;-93
2023/03/19 06:52:02;;;;;;;13.40;10.88;;;;;;;;;;4863342;29;20021;-95
2023/03/19 06:54:47;;;;;;;15.27;12.30;;;;;;;;;;4862992;29;20044;-93
2023/03/19 06:57:14;;;;;;;14.70;12.40;;;;;;;;;;4862887;29;20029;-92
2023/03/19 06:59:40;;;;;;;13.98;11.60;;;;;;;;;;4863305;29;20029;-92
2023/03/19 07:02:10;;;;;;;14.32;11.68;;;;;;;;;;4862923;29;20124;-95
2023/03/19 07:04:36;;;;;;;15.55;12.48;;;;;;;;;;4862446;29;20033;-94
2023/03/19 07:07:04;;;;;;;13.48;11.45;;;;;;;;;;4861865;29;20029;-94
2023/03/19 07:09:34;;;;;;;15.65;11.80;;;;;;;;;;4862087;29;20089;-92
2023/03/19 07:12:09;;;;;;;13.57;11.07;;;;;;;;;;4864697;29;20025;-94
2023/03/19 07:14:46;;;;;;;16.15;12.43;;;;;;;;;;4866726;29;20029;-92
2023/03/19 07:17:12;;;;;;;14.45;11.50;;;;;;;;;;4868412;29;20062;-96
2023/03/19 07:19:41;;;;;;;15.48;12.40;;;;;;;;;;4868088;29;20061;-95
2023/03/19 07:22:09;;;;;;;13.23;11.38;;;;;;;;;;4882814;29;20048;-94
2023/03/19 07:24:35;;;;;;;15.63;11.68;;;;;;;;;;4866317;29;20124;-94
2023/03/19 07:27:02;;;;;;;14.00;11.35;;;;;;;;;;4866250;29;20127;-94
2023/03/19 07:29:28;;;;;;;13.30;10.45;;;;;;;;;;4866125;29;20263;-95
2023/03/19 07:31:54;;;;;;;12.23;10.48;;;;;;;;;;4866445;29;20112;-95
2023/03/19 07:34:23;;;;;;;13.98;10.77;;;;;;;;;;4866683;29;20037;-93
2023/03/19 07:36:50;;;;;;;15.82;10.93;;;;;;;;;;4869557;29;20060;-93
2023/03/19 07:39:16;;;;;;;13.90;10.27;;;;;;;;;;4874144;29;20034;-96
2023/03/19 07:41:43;;;;;;;13.40;10.30;;;;;;;;;;4875099;29;20078;-95
2023/03/19 07:44:13;;;;;;;10.88;9.75;;;;;;;;;;4869339;29;20033;-95
2023/03/19 07:46:39;;;;;;;12.77;9.55;;;;;;;;;;4867857;29;20049;-95
2023/03/19 07:49:09;;;;;;;12.32;9.20;;;;;;;;;;4893220;29;20017;-94
2023/03/19 07:51:35;;;;;;;11.52;9.40;;;;;;;;;;4877819;29;20040;-93
2023/03/19 07:54:01;;;;;;;10.95;9.48;;;;;;;;;;4883421;29;20020;-96
2023/03/19 07:56:30;;;;;;;10.82;9.00;;;;;;;;;;4877241;29;20033;-94
2023/03/19 07:58:58;;;;;;;10.48;8.95;;;;;;;;;;4875912;29;20025;-94
2023/03/19 08:01:25;;;;;;;12.60;9.55;;;;;;;;;;4880105;29;20025;-94
2023/03/19 08:03:52;;;;;;;9.68;8.57;;;;;;;;;;4862035;29;20124;-96
2023/03/19 08:06:20;;;;;;;9.77;8.20;;;;;;;;;;4893110;29;20037;-95
2023/03/19 08:08:50;;;;;;;11.07;8.60;;;;;;;;;;4892830;29;20036;-95
2023/03/19 08:11:16;;;;;;;12.07;8.32;;;;;;;;;;4875153;29;20033;-95
2023/03/19 08:13:44;;;;;;;10.05;8.32;;;;;;;;;;4891897;29;20044;-94
2023/03/19 08:16:12;;;;;;;11.98;8.68;;;;;;;;;;4857327;29;20128;-95
2023/03/19 08:18:42;;;;;;;11.73;8.45;;;;;;;;;;4877199;29;20057;-96
2023/03/19 08:21:09;;;;;;;11.48;9.25;;;;;;;;;;4875219;29;20067;-93
2023/03/19 08:23:37;;;;;;;10.35;8.73;;;;;;;;;;4857411;29;20083;-92
2023/03/19 08:26:10;;;;;;;10.00;8.38;;;;;;;;;;4880975;29;20042;-92
2023/03/19 08:31:57;;;;;;;10.85;8.20;;;;;;;;;;4837017;29;20052;-96
2023/03/19 08:37:21;;;;;;;9.95;8.13;;;;;;;;;;4872691;29;20040;-96
2023/03/19 08:40:03;;;;;;;11.77;8.40;;;;;;;;;;4875498;29;20025;-96
2023/03/19 08:42:29;;;;;;;10.15;8.07;;;;;;;;;;4879008;29;20037;-93
2023/03/19 08:45:31;;;;;;;10.48;7.82;;;;;;;;;;4874745;29;20029;-96
2023/03/19 08:48:29;;;;;;;9.05;7.40;;;;;;;;;;4858737;29;20041;-95
2023/03/19 08:51:46;;;;;;;9.95;8.23;;;;;;;;;;4797857;30;20049;-96
2023/03/19 08:54:17;;;;;;;11.75;7.88;;;;;;;;;;4797983;29;20575;-96
2023/03/19 08:56:44;;;;;;;9.25;7.57;;;;;;;;;;4855713;29;20040;-96
2023/03/19 09:02:25;;;;;;;10.82;8.10;;;;;;;;;;4876161;29;20093;-94
2023/03/19 09:04:52;;;;;;;9.18;7.47;;;;;;;;;;4857477;29;20060;-96
2023/03/19 09:18:29;;;;;;;12.65;7.68;;;;;;;;;;5088387;23;20190;-95
2023/03/19 09:20:59;;;;;;;10.35;7.55;;;;;;;;;;4910441;29;20029;-95
2023/03/19 09:23:28;;;;;;;10.55;8.38;;;;;;;;;;4894943;29;20073;-92
2023/03/19 09:25:57;;;;;;;9.90;8.13;;;;;;;;;;4877943;29;20040;-94
2023/03/19 09:28:24;;;;;;;10.48;7.80;;;;;;;;;;4896935;29;20044;-95
2023/03/19 09:30:51;;;;;;;12.00;9.13;;;;;;;;;;4894473;29;20020;-96
2023/03/19 09:33:17;;;;;;;12.55;9.40;;;;;;;;;;4901500;29;20056;-93
2023/03/19 09:35:48;;;;;;;10.65;8.38;;;;;;;;;;4908335;29;20052;-93
2023/03/19 09:38:15;;;;;;;9.07;7.75;;;;;;;;;;4890769;29;20043;-93
2023/03/19 09:40:43;;;;;;;10.18;8.10;;;;;;;;;;4891010;29;20032;-94
2023/03/19 09:43:48;;;;;;;10.85;7.50;;;;;;;;;;4889180;29;20076;-93
2023/03/19 09:46:18;;;;;;;9.13;7.65;;;;;;;;;;4797470;29;20064;-94
2023/03/19 09:49:05;;;;;;;8.35;6.93;;;;;;;;;;4790243;29;20513;-94
2023/03/19 09:51:50;;;;;;;9.15;7.55;;;;;;;;;;4865015;29;20043;-94
2023/03/19 09:54:26;;;;;;;8.95;6.95;;;;;;;;;;4882873;29;20035;-94
2023/03/19 09:56:52;;;;;;;10.48;7.47;;;;;;;;;;4882786;29;20021;-94
2023/03/19 09:59:21;;;;;;;9.57;6.97;;;;;;;;;;4885574;29;20032;-95
2023/03/19 10:01:52;;;;;;;12.27;8.80;;;;;;;;;;4884519;29;20161;-94
2023/03/19 10:04:36;;;;;;;9.27;7.63;;;;;;;;;;4883542;29;20525;-93
2023/03/19 10:07:15;;;;;;;10.32;7.88;;;;;;;;;;4882627;29;20037;-94
2023/03/19 10:09:48;;;;;;;10.27;7.60;;;;;;;;;;4883038;29;20036;-92
2023/03/19 10:12:26;;;;;;;9.85;7.20;;;;;;;;;;4885976;29;20005;-95
2023/03/19 10:15:11;;;;;;;12.02;7.75;;;;;;;;;;4883294;29;20039;-93
2023/03/19 10:17:42;;;;;;;9.73;7.38;;;;;;;;;;4882447;29;20470;-95
2023/03/19 10:20:21;;;;;;;9.05;6.65;;;;;;;;;;4867749;29;20045;-95
2023/03/19 10:22:49;;;;;;;10.60;7.95;;;;;;;;;;4863937;29;20033;-94
2023/03/19 10:25:19;;;;;;;13.25;8.20;;;;;;;;;;4866007;29;20029;-96
2023/03/19 10:27:48;;;;;;;10.57;7.50;;;;;;;;;;4864519;29;20033;-94
2023/03/19 10:30:15;;;;;;;12.02;7.80;;;;;;;;;;4864652;29;20041;-93
2023/03/19 10:32:43;;;;;;;9.70;7.10;;;;;;;;;;4867126;29;20043;-95
2023/03/19 10:35:17;;;;;;;9.57;7.20;;;;;;;;;;4864317;29;20112;-95
2023/03/19 10:37:44;;;;;;;12.15;7.50;;;;;;;;;;4863727;29;20036;-95
2023/03/19 10:40:43;;;;;;;10.25;7.57;;;;;;;;;;4862994;29;20028;-94
2023/03/19 10:43:16;;;;;;;11.85;7.90;;;;;;;;;;4815709;29;20041;-94
2023/03/19 10:45:42;;;;;;;10.05;7.65;;;;;;;;;;4846279;29;20034;-92
2023/03/19 10:48:12;;;;;;;11.27;8.18;;;;;;;;;;4868492;29;20029;-92
2023/03/19 10:50:46;;;;;;;10.30;7.78;;;;;;;;;;4873938;29;20041;-94
2023/03/19 10:53:12;;;;;;;13.60;8.15;;;;;;;;;;4868904;29;20064;-94
2023/03/19 10:55:44;;;;;;;10.35;8.27;;;;;;;;;;4869123;29;20726;-93
2023/03/19 10:58:20;;;;;;;12.95;8.80;;;;;;;;;;4869292;29;20029;-95
2023/03/19 11:00:48;;;;;;;24.55;8.63;;;;;;;;;;4867771;29;20032;-92
2023/03/19 11:03:34;;;;;;;11.05;8.50;;;;;;;;;;4867680;29;20056;-93
2023/03/19 11:06:06;;;;;;;10.77;7.78;;;;;;;;;;4867797;29;20033;-93
2023/03/19 11:08:40;;;;;;;11.50;7.70;;;;;;;;;;4889641;29;20029;-91
2023/03/19 11:11:06;;;;;;;11.55;7.68;;;;;;;;;;4872565;29;20035;-95
2023/03/19 11:13:34;;;;;;;10.88;7.60;;;;;;;;;;4873343;29;20039;-94
2023/03/19 11:16:01;;;;;;;12.48;8.88;;;;;;;;;;4874315;29;20029;-96
2023/03/19 11:18:29;;;;;;;13.40;8.43;;;;;;;;;;4870920;29;20049;-94
2023/03/19 11:21:05;;;;;;;11.48;8.23;;;;;;;;;;4869098;29;20128;-95
2023/03/19 11:23:37;;;;;;;13.60;8.27;;;;;;;;;;4867739;29;20029;-94
2023/03/19 11:26:23;;;;;;;9.35;7.28;;;;;;;;;;4868519;29;20032;-96
2023/03/19 11:29:16;;;;;;;10.32;7.82;;;;;;;;;;4853189;29;20053;-96
2023/03/19 11:31:52;;;;;;;11.32;7.88;;;;;;;;;;5335705;23;20052;-92
2023/03/19 11:34:32;;;;;;;9.70;7.03;;;;;;;;;;4874236;29;20048;-95
2023/03/19 11:37:17;;;;;;;9.68;7.15;;;;;;;;;;4869274;29;20029;-95
2023/03/19 11:39:57;;;;;;;12.10;8.02;;;;;;;;;;4867960;29;20053;-95
2023/03/19 11:42:42;;;;;;;10.35;7.22;;;;;;;;;;4873630;29;20025;-96
2023/03/19 11:45:27;;;;;;;10.52;7.43;;;;;;;;;;4871714;29;20029;-96
2023/03/19 11:48:03;;;;;;;9.82;7.18;;;;;;;;;;4868899;29;20036;-96
2023/03/19 11:50:41;;;;;;;10.27;7.47;;;;;;;;;;4874011;29;20040;-95
2023/03/19 11:59:32;;;;;;;8.50;6.78;;;;;;;;;;4917288;23;21461;-96
2023/03/19 12:02:16;;;;;;;10.05;6.93;;;;;;;;;;4864492;29;20036;-95
2023/03/19 12:04:48;;;;;;;9.77;6.75;;;;;;;;;;4865590;29;20059;-95
2023/03/19 12:07:18;;;;;;;9.40;7.18;;;;;;;;;;4865781;29;20033;-96
2023/03/19 12:09:48;;;;;;;10.80;7.20;;;;;;;;;;4866132;29;20037;-94
2023/03/19 12:12:35;;;;;;;8.63;6.93;;;;;;;;;;4865646;29;20104;-92
2023/03/19 12:15:02;;;;;;;9.18;7.00;;;;;;;;;;4864461;29;20123;-94
2023/03/19 12:17:58;;;;;;;10.00;7.78;;;;;;;;;;4866230;29;20052;-96
2023/03/19 12:20:33;;;;;;;10.07;7.40;;;;;;;;;;4865433;29;20037;-91
2023/03/19 12:23:05;;;;;;;11.00;7.53;;;;;;;;;;4882356;29;20084;-92
2023/03/19 12:25:37;;;;;;;10.18;7.22;;;;;;;;;;4865799;29;20134;-94
2023/03/19 12:28:03;;;;;;;9.70;6.78;;;;;;;;;;4865441;29;20057;-94
2023/03/19 12:30:30;;;;;;;12.45;8.27;;;;;;;;;;4865266;29;20048;-94
2023/03/19 12:32:56;;;;;;;9.65;7.10;;;;;;;;;;4865104;29;20111;-93
2023/03/19 12:35:26;;;;;;;8.93;6.93;;;;;;;;;;4865330;29;20036;-93
2023/03/19 12:37:55;;;;;;;7.93;6.88;;;;;;;;;;4864901;29;20017;-91
2023/03/19 12:40:36;;;;;;;10.55;7.22;;;;;;;;;;4864927;29;20021;-93
2023/03/19 12:43:13;;;;;;;10.60;7.65;;;;;;;;;;4864706;29;20096;-96
2023/03/19 12:45:42;;;;;;;10.80;7.78;;;;;;;;;;4865883;29;20029;-96
2023/03/19 12:48:15;;;;;;;9.63;7.32;;;;;;;;;;4864792;29;20037;-92
2023/03/19 12:50:43;;;;;;;11.60;7.70;;;;;;;;;;4869256;29;20041;-90
2023/03/19 12:53:16;;;;;;;12.00;7.90;;;;;;;;;;4869966;29;20064;-92
2023/03/19 12:55:45;;;;;;;9.75;7.20;;;;;;;;;;4864719;29;20032;-94
2023/03/19 12:58:11;;;;;;;10.10;7.88;;;;;;;;;;4864659;29;20029;-91
2023/03/19 13:00:42;;;;;;;11.07;7.88;;;;;;;;;;4877731;29;20053;-92
2023/03/19 13:03:16;;;;;;;9.85;7.90;;;;;;;;;;4883155;29;20032;-95
2023/03/19 13:05:45;;;;;;;8.60;7.07;;;;;;;;;;4883472;29;20032;-93
2023/03/19 13:08:15;;;;;;;9.82;7.28;;;;;;;;;;4883230;29;20478;-93
2023/03/19 13:10:44;;;;;;;8.27;6.88;;;;;;;;;;4882385;29;20088;-92
2023/03/19 13:13:22;;;;;;;9.27;7.07;;;;;;;;;;4883230;29;20025;-95
2023/03/19 13:15:51;;;;;;;8.68;6.85;;;;;;;;;;4884609;29;20032;-96
2023/03/19 13:18:29;;;;;;;11.13;7.60;;;;;;;;;;4889430;29;20120;-96
2023/03/19 13:21:14;;;;;;;10.52;7.18;;;;;;;;;;4886961;29;20060;-96
2023/03/19 13:23:42;;;;;;;10.43;7.32;;;;;;;;;;4893637;29;20024;-95
2023/03/19 13:26:11;;;;;;;10.20;6.63;;;;;;;;;;4896967;29;20196;-96
2023/03/19 13:28:38;;;;;;;8.90;6.63;;;;;;;;;;4884868;29;20160;-96
2023/03/19 13:31:04;;;;;;;10.43;7.70;;;;;;;;;;4883145;29;20069;-95
2023/03/19 13:33:31;;;;;;;8.85;6.90;;;;;;;;;;4883822;29;20382;-96
2023/03/19 13:36:01;;;;;;;10.30;6.80;;;;;;;;;;4883972;29;20058;-96
2023/03/19 13:38:27;;;;;;;8.88;7.13;;;;;;;;;;4884795;29;20024;-96
2023/03/19 13:40:55;;;;;;;9.85;7.00;;;;;;;;;;4883016;29;20378;-96
2023/03/19 13:43:23;;;;;;;11.40;7.75;;;;;;;;;;4888628;29;20025;-94
2023/03/19 13:45:53;;;;;;;11.50;7.40;;;;;;;;;;4902796;29;20028;-94
2023/03/19 13:48:24;;;;;;;9.98;6.75;;;;;;;;;;4893114;29;20037;-96
2023/03/19 13:50:55;;;;;;;10.10;7.15;;;;;;;;;;4887869;29;20044;-95
2023/03/19 13:53:33;;;;;;;11.10;6.85;;;;;;;;;;4883848;29;20025;-95
2023/03/19 13:56:11;;;;;;;9.65;6.88;;;;;;;;;;4886522;29;20393;-96
2023/03/19 13:58:51;;;;;;;9.52;6.72;;;;;;;;;;4883592;29;20065;-95
2023/03/19 14:01:26;;;;;;;10.20;7.30;;;;;;;;;;4883104;29;20048;-96
2023/03/19 14:03:57;;;;;;;8.50;6.75;;;;;;;;;;4883571;29;20064;-96
2023/03/19 14:06:38;;;;;;;9.80;7.00;;;;;;;;;;4882979;29;20116;-96
2023/03/19 14:09:05;;;;;;;9.65;6.88;;;;;;;;;;4896491;29;20075;-95
2023/03/19 14:11:33;;;;;;;9.13;7.20;;;;;;;;;;4883559;29;20557;-96
2023/03/19 14:14:05;;;;;;;10.95;7.30;;;;;;;;;;4884364;29;20025;-95
2023/03/19 14:16:51;;;;;;;11.23;7.65;;;;;;;;;;4882837;29;20033;-94
2023/03/19 14:19:20;;;;;;;11.05;7.80;;;;;;;;;;4883154;29;20025;-96
2023/03/19 14:22:33;;;;;;;;;;;;;;;;;;;;;
2023/03/19 14:25:08;;;;;;;12.07;8.00;;;;;;;;;;4837419;29;20030;-96
2023/03/19 14:27:40;;;;;;;15.35;9.85;;;;;;;;;;4889723;29;20040;-96
2023/03/19 14:30:14;;;;;;;16.75;12.52;;;;;;;;;;4868281;29;20067;-96
2023/03/19 14:39:09;;;;;;;;;;;;;;;;;;;;;
2023/03/19 14:41:49;;;;;;;10.07;7.63;;;;;;;;;;4910264;29;20108;-96
2023/03/19 14:44:38;;;;;;;10.95;8.18;;;;;;;;;;4905009;29;20037;-96
2023/03/19 14:47:48;;;;;;;13.32;9.50;;;;;;;;;;4892248;29;20060;-96
2023/03/19 14:50:20;;;;;;;11.15;8.07;;;;;;;;;;4893592;29;20515;-95
2023/03/19 14:53:16;;;;;;;12.37;9.13;;;;;;;;;;4885929;29;20141;-95
2023/03/19 14:56:00;;;;;;;;;;;;;;;;;;;;;
2023/03/19 14:58:36;;;;;;;;;;;;;;;;;;4906703;29;20036;-95
2023/03/19 15:01:53;;;;;;;;;;;;;;;;;;;;;
2023/03/19 15:04:40;;;;;;;13.80;8.40;;;;;;;;;;4841976;29;20079;-96
2023/03/19 15:07:17;;;;;;;11.35;7.95;;;;;;;;;;4834356;29;20045;-95
2023/03/19 15:09:43;;;;;;;9.77;7.63;;;;;;;;;;4827605;29;20034;-96
2023/03/19 15:12:24;;;;;;;10.20;7.30;;;;;;;;;;4883636;29;20126;-96
2023/03/19 15:15:11;;;;;;;14.70;7.88;;;;;;;;;;4897122;29;20119;-96
2023/03/19 15:17:37;;;;;;;13.70;8.38;;;;;;;;;;4893550;29;20040;-96
2023/03/19 15:20:04;;;;;;;11.93;8.82;;;;;;;;;;4904370;29;20024;-93
2023/03/19 15:22:34;;;;;;;14.10;8.68;;;;;;;;;;4893715;29;20160;-96
2023/03/19 15:25:07;;;;;;;12.10;8.60;;;;;;;;;;4889169;29;20101;-94
2023/03/19 15:30:27;;;;;;;11.25;8.57;;;;;;;;;;4984518;23;20036;-95
2023/03/19 15:33:03;;;;;;;9.48;7.60;;;;;;;;;;4893902;29;20024;-96
2023/03/19 15:35:38;;;;;;;10.85;8.10;;;;;;;;;;4891088;29;20028;-95
2023/03/19 15:38:11;;;;;;;11.90;8.13;;;;;;;;;;4891772;29;20493;-96
2023/03/19 15:40:44;;;;;;;13.27;7.80;;;;;;;;;;4894697;29;20038;-96
2023/03/19 15:43:22;;;;;;;13.20;7.43;;;;;;;;;;5466116;23;20019;-96
2023/03/19 15:45:54;;;;;;;11.18;7.70;;;;;;;;;;4892280;29;20033;-96
2023/03/19 15:48:28;;;;;;;13.00;7.20;;;;;;;;;;4906135;29;20028;-96
2023/03/19 15:50:57;;;;;;;10.20;8.10;;;;;;;;;;4892810;29;20032;-96
2023/03/19 15:53:33;;;;;;;9.65;8.07;;;;;;;;;;4890603;29;20276;-96
2023/03/19 15:56:21;;;;;;;10.48;7.50;;;;;;;;;;4890204;29;20033;-95
2023/03/19 15:59:00;;;;;;;14.05;9.02;;;;;;;;;;4892766;29;20040;-96